sensor_id;sensor_type;location;lat;lon;timestamp;pressure;altitude;pressure_sealevel;temperature
67515;BMP280;60646;55.802;37.032;2022-10-16T00:01:14;100921.03;;;8.96
67515;BMP280;60646;55.802;37.032;2022-10-16T00:03:40;100929.78;;;8.96
67515;BMP280;60646;55.802;37.032;2022-10-16T00:06:07;100924.88;;;8.95
67515;BMP280;60646;55.802;37.032;2022-10-16T00:08:33;100927.53;;;8.95
67515;BMP280;60646;55.802;37.032;2022-10-16T00:11:03;100936.72;;;8.94
67515;BMP280;60646;55.802;37.032;2022-10-16T00:13:29;100937.16;;;8.92
67515;BMP280;60646;55.802;37.032;2022-10-16T00:15:56;100930.34;;;8.91
67515;BMP280;60646;55.802;37.032;2022-10-16T00:18:22;100939.50;;;8.90
67515;BMP280;60646;55.802;37.032;2022-10-16T00:20:48;100940.25;;;8.91
67515;BMP280;60646;55.802;37.032;2022-10-16T00:23:32;100940.69;;;8.89
67515;BMP280;60646;55.802;37.032;2022-10-16T00:25:59;100935.81;;;8.88
67515;BMP280;60646;55.802;37.032;2022-10-16T00:28:25;100943.06;;;8.87
67515;BMP280;60646;55.802;37.032;2022-10-16T00:30:51;100937.72;;;8.87
67515;BMP280;60646;55.802;37.032;2022-10-16T00:33:16;100941.56;;;8.86
67515;BMP280;60646;55.802;37.032;2022-10-16T00:35:42;100940.06;;;8.85
67515;BMP280;60646;55.802;37.032;2022-10-16T00:38:07;100948.19;;;8.81
67515;BMP280;60646;55.802;37.032;2022-10-16T00:40:33;100951.72;;;8.78
67515;BMP280;60646;55.802;37.032;2022-10-16T00:42:59;100943.88;;;8.75
67515;BMP280;60646;55.802;37.032;2022-10-16T00:45:25;100943.25;;;8.71
67515;BMP280;60646;55.802;37.032;2022-10-16T00:47:50;100942.91;;;8.69
67515;BMP280;60646;55.802;37.032;2022-10-16T00:50:24;100941.44;;;8.68
67515;BMP280;60646;55.802;37.032;2022-10-16T00:52:51;100946.78;;;8.68
67515;BMP280;60646;55.802;37.032;2022-10-16T00:55:17;100943.81;;;8.66
67515;BMP280;60646;55.802;37.032;2022-10-16T00:57:43;100947.66;;;8.65
67515;BMP280;60646;55.802;37.032;2022-10-16T01:00:12;100949.13;;;8.66
67515;BMP280;60646;55.802;37.032;2022-10-16T01:02:38;100951.47;;;8.64
67515;BMP280;60646;55.802;37.032;2022-10-16T01:05:04;100961.38;;;8.63
67515;BMP280;60646;55.802;37.032;2022-10-16T01:07:32;100952.66;;;8.63
67515;BMP280;60646;55.802;37.032;2022-10-16T01:10:14;100961.84;;;8.62
67515;BMP280;60646;55.802;37.032;2022-10-16T01:12:45;100957.66;;;8.61
67515;BMP280;60646;55.802;37.032;2022-10-16T01:20:47;100965.06;;;8.57
67515;BMP280;60646;55.802;37.032;2022-10-16T01:28:09;100965.47;;;8.55
67515;BMP280;60646;55.802;37.032;2022-10-16T01:30:37;100964.72;;;8.55
67515;BMP280;60646;55.802;37.032;2022-10-16T01:33:08;100963.97;;;8.54
67515;BMP280;60646;55.802;37.032;2022-10-16T01:35:39;100973.13;;;8.53
67515;BMP280;60646;55.802;37.032;2022-10-16T01:40:39;100971.34;;;8.50
67515;BMP280;60646;55.802;37.032;2022-10-16T01:43:08;100966.44;;;8.49
67515;BMP280;60646;55.802;37.032;2022-10-16T01:45:35;100975.63;;;8.48
67515;BMP280;60646;55.802;37.032;2022-10-16T01:48:02;100971.91;;;8.45
67515;BMP280;60646;55.802;37.032;2022-10-16T01:50:31;100970.41;;;8.44
67515;BMP280;60646;55.802;37.032;2022-10-16T01:52:59;100975.00;;;8.44
67515;BMP280;60646;55.802;37.032;2022-10-16T01:55:28;100972.75;;;8.42
67515;BMP280;60646;55.802;37.032;2022-10-16T01:57:54;100968.59;;;8.41
67515;BMP280;60646;55.802;37.032;2022-10-16T02:00:20;100969.78;;;8.40
67515;BMP280;60646;55.802;37.032;2022-10-16T02:02:47;100971.69;;;8.40
67515;BMP280;60646;55.802;37.032;2022-10-16T02:05:26;100973.63;;;8.39
67515;BMP280;60646;55.802;37.032;2022-10-16T02:07:53;100979.06;;;8.36
67515;BMP280;60646;55.802;37.032;2022-10-16T02:10:19;100983.75;;;8.31
67515;BMP280;60646;55.802;37.032;2022-10-16T02:12:48;100976.31;;;8.26
67515;BMP280;60646;55.802;37.032;2022-10-16T02:15:35;100978.78;;;8.21
67515;BMP280;60646;55.802;37.032;2022-10-16T02:18:01;100977.44;;;8.16
67515;BMP280;60646;55.802;37.032;2022-10-16T02:20:28;100980.63;;;8.11
67515;BMP280;60646;55.802;37.032;2022-10-16T02:22:54;100974.66;;;8.07
67515;BMP280;60646;55.802;37.032;2022-10-16T02:25:31;100976.69;;;8.03
67515;BMP280;60646;55.802;37.032;2022-10-16T02:30:28;100989.03;;;7.97
67515;BMP280;60646;55.802;37.032;2022-10-16T02:32:54;100989.47;;;7.96
67515;BMP280;60646;55.802;37.032;2022-10-16T02:35:21;100984.91;;;7.96
67515;BMP280;60646;55.802;37.032;2022-10-16T02:37:47;100983.72;;;7.97
67515;BMP280;60646;55.802;37.032;2022-10-16T02:40:14;100983.28;;;7.99
67515;BMP280;60646;55.802;37.032;2022-10-16T02:42:40;100982.56;;;7.98
67515;BMP280;60646;55.802;37.032;2022-10-16T02:45:24;100989.34;;;7.99
67515;BMP280;60646;55.802;37.032;2022-10-16T02:47:50;100988.19;;;8.00
67515;BMP280;60646;55.802;37.032;2022-10-16T02:50:16;100981.34;;;7.99
67515;BMP280;60646;55.802;37.032;2022-10-16T02:52:41;100984.78;;;8.00
67515;BMP280;60646;55.802;37.032;2022-10-16T02:55:07;100982.09;;;8.00
67515;BMP280;60646;55.802;37.032;2022-10-16T02:57:33;100985.53;;;8.00
67515;BMP280;60646;55.802;37.032;2022-10-16T02:59:58;100988.59;;;7.99
67515;BMP280;60646;55.802;37.032;2022-10-16T03:02:24;100986.69;;;7.99
67515;BMP280;60646;55.802;37.032;2022-10-16T03:04:50;100990.84;;;8.00
67515;BMP280;60646;55.802;37.032;2022-10-16T03:07:15;100995.41;;;8.00
67515;BMP280;60646;55.802;37.032;2022-10-16T03:09:41;100992.75;;;8.00
67515;BMP280;60646;55.802;37.032;2022-10-16T03:12:07;100998.50;;;7.98
67515;BMP280;60646;55.802;37.032;2022-10-16T03:14:32;100995.09;;;7.98
67515;BMP280;60646;55.802;37.032;2022-10-16T03:16:58;100993.59;;;7.97
67515;BMP280;60646;55.802;37.032;2022-10-16T03:19:24;100995.56;;;7.96
67515;BMP280;60646;55.802;37.032;2022-10-16T03:21:49;101006.19;;;7.96
67515;BMP280;60646;55.802;37.032;2022-10-16T03:24:15;101006.59;;;7.95
67515;BMP280;60646;55.802;37.032;2022-10-16T03:26:41;101003.31;;;7.91
67515;BMP280;60646;55.802;37.032;2022-10-16T03:29:07;101001.81;;;7.90
67515;BMP280;60646;55.802;37.032;2022-10-16T03:31:32;101002.66;;;7.87
67515;BMP280;60646;55.802;37.032;2022-10-16T03:33:58;101012.56;;;7.86
67515;BMP280;60646;55.802;37.032;2022-10-16T03:36:24;101003.09;;;7.85
67515;BMP280;60646;55.802;37.032;2022-10-16T03:38:49;101015.69;;;7.85
67515;BMP280;60646;55.802;37.032;2022-10-16T03:41:15;101015.34;;;7.83
67515;BMP280;60646;55.802;37.032;2022-10-16T03:43:40;101016.09;;;7.83
67515;BMP280;60646;55.802;37.032;2022-10-16T03:46:06;101017.59;;;7.84
67515;BMP280;60646;55.802;37.032;2022-10-16T03:48:32;101012.69;;;7.83
67515;BMP280;60646;55.802;37.032;2022-10-16T03:50:57;101018.00;;;7.83
67515;BMP280;60646;55.802;37.032;2022-10-16T03:53:23;101013.44;;;7.83
67515;BMP280;60646;55.802;37.032;2022-10-16T03:55:49;101016.84;;;7.84
67515;BMP280;60646;55.802;37.032;2022-10-16T03:58:14;101017.25;;;7.82
67515;BMP280;60646;55.802;37.032;2022-10-16T04:00:41;101021.06;;;7.81
67515;BMP280;60646;55.802;37.032;2022-10-16T04:03:06;101013.53;;;7.79
67515;BMP280;60646;55.802;37.032;2022-10-16T04:05:32;101016.94;;;7.80
67515;BMP280;60646;55.802;37.032;2022-10-16T04:07:58;101018.09;;;7.79
67515;BMP280;60646;55.802;37.032;2022-10-16T04:10:23;101021.94;;;7.78
67515;BMP280;60646;55.802;37.032;2022-10-16T04:12:49;101011.28;;;7.78
67515;BMP280;60646;55.802;37.032;2022-10-16T04:15:15;101016.59;;;7.78
67515;BMP280;60646;55.802;37.032;2022-10-16T04:17:40;101021.94;;;7.78
67515;BMP280;60646;55.802;37.032;2022-10-16T04:20:06;101016.28;;;7.76
67515;BMP280;60646;55.802;37.032;2022-10-16T04:22:32;101020.13;;;7.75
67515;BMP280;60646;55.802;37.032;2022-10-16T04:24:57;101023.53;;;7.75
67515;BMP280;60646;55.802;37.032;2022-10-16T04:27:23;101017.47;;;7.75
67515;BMP280;60646;55.802;37.032;2022-10-16T04:29:48;101033.41;;;7.75
67515;BMP280;60646;55.802;37.032;2022-10-16T04:32:14;101028.09;;;7.75
67515;BMP280;60646;55.802;37.032;2022-10-16T04:34:39;101023.97;;;7.74
67515;BMP280;60646;55.802;37.032;2022-10-16T04:37:05;101028.84;;;7.75
67515;BMP280;60646;55.802;37.032;2022-10-16T04:39:31;101028.09;;;7.75
67515;BMP280;60646;55.802;37.032;2022-10-16T04:41:56;101030.75;;;7.75
67515;BMP280;60646;55.802;37.032;2022-10-16T04:44:22;101034.16;;;7.75
67515;BMP280;60646;55.802;37.032;2022-10-16T04:46:50;101031.06;;;7.77
67515;BMP280;60646;55.802;37.032;2022-10-16T04:49:15;101034.06;;;7.79
67515;BMP280;60646;55.802;37.032;2022-10-16T04:51:41;101022.97;;;7.80
67515;BMP280;60646;55.802;37.032;2022-10-16T04:54:06;101030.56;;;7.82
67515;BMP280;60646;55.802;37.032;2022-10-16T04:56:32;101030.88;;;7.84
67515;BMP280;60646;55.802;37.032;2022-10-16T04:58:57;101042.28;;;7.85
67515;BMP280;60646;55.802;37.032;2022-10-16T05:01:23;101039.16;;;7.86
67515;BMP280;60646;55.802;37.032;2022-10-16T05:03:49;101034.16;;;7.88
67515;BMP280;60646;55.802;37.032;2022-10-16T05:06:14;101035.22;;;7.91
67515;BMP280;60646;55.802;37.032;2022-10-16T05:08:40;101034.81;;;7.92
67515;BMP280;60646;55.802;37.032;2022-10-16T05:11:05;101035.13;;;7.94
67515;BMP280;60646;55.802;37.032;2022-10-16T05:13:31;101036.19;;;7.97
67515;BMP280;60646;55.802;37.032;2022-10-16T05:15:56;101037.25;;;7.99
67515;BMP280;60646;55.802;37.032;2022-10-16T05:18:22;101044.41;;;8.02
67515;BMP280;60646;55.802;37.032;2022-10-16T05:20:48;101038.63;;;8.04
67515;BMP280;60646;55.802;37.032;2022-10-16T05:23:13;101045.31;;;8.08
67515;BMP280;60646;55.802;37.032;2022-10-16T05:25:39;101045.25;;;8.12
67515;BMP280;60646;55.802;37.032;2022-10-16T05:28:04;101048.97;;;8.14
67515;BMP280;60646;55.802;37.032;2022-10-16T05:30:30;101040.84;;;8.18
67515;BMP280;60646;55.802;37.032;2022-10-16T05:32:55;101047.56;;;8.22
67515;BMP280;60646;55.802;37.032;2022-10-16T05:35:21;101044.38;;;8.27
67515;BMP280;60646;55.802;37.032;2022-10-16T05:37:47;101048.41;;;8.32
67515;BMP280;60646;55.802;37.032;2022-10-16T05:40:13;101050.94;;;8.36
67515;BMP280;60646;55.802;37.032;2022-10-16T05:42:39;101053.50;;;8.39
67515;BMP280;60646;55.802;37.032;2022-10-16T05:45:11;101054.91;;;8.44
67515;BMP280;60646;55.802;37.032;2022-10-16T05:47:37;101054.78;;;8.47
67515;BMP280;60646;55.802;37.032;2022-10-16T05:50:03;101054.66;;;8.51
67515;BMP280;60646;55.802;37.032;2022-10-16T05:52:29;101062.53;;;8.54
67515;BMP280;60646;55.802;37.032;2022-10-16T05:54:55;101063.16;;;8.58
67515;BMP280;60646;55.802;37.032;2022-10-16T05:57:21;101061.84;;;8.63
67515;BMP280;60646;55.802;37.032;2022-10-16T05:59:46;101070.47;;;8.67
67515;BMP280;60646;55.802;37.032;2022-10-16T06:02:12;101067.72;;;8.70
67515;BMP280;60646;55.802;37.032;2022-10-16T06:04:39;101074.41;;;8.75
67515;BMP280;60646;55.802;37.032;2022-10-16T06:07:04;101063.19;;;8.80
67515;BMP280;60646;55.802;37.032;2022-10-16T06:09:30;101066.50;;;8.84
67515;BMP280;60646;55.802;37.032;2022-10-16T06:11:55;101059.84;;;8.88
67515;BMP280;60646;55.802;37.032;2022-10-16T06:14:21;101069.25;;;8.93
67515;BMP280;60646;55.802;37.032;2022-10-16T06:16:47;101067.47;;;8.99
67515;BMP280;60646;55.802;37.032;2022-10-16T06:19:12;101069.59;;;9.04
67515;BMP280;60646;55.802;37.032;2022-10-16T06:21:38;101071.69;;;9.09
67515;BMP280;60646;55.802;37.032;2022-10-16T06:24:04;101067.75;;;9.14
67515;BMP280;60646;55.802;37.032;2022-10-16T06:26:30;101069.09;;;9.18
67515;BMP280;60646;55.802;37.032;2022-10-16T06:28:56;101075.06;;;9.22
67515;BMP280;60646;55.802;37.032;2022-10-16T06:31:24;101068.00;;;9.28
67515;BMP280;60646;55.802;37.032;2022-10-16T06:33:55;101071.63;;;9.34
67515;BMP280;60646;55.802;37.032;2022-10-16T06:36:21;101079.00;;;9.39
67515;BMP280;60646;55.802;37.032;2022-10-16T06:38:47;101075.03;;;9.44
67515;BMP280;60646;55.802;37.032;2022-10-16T06:41:14;101076.72;;;9.51
67515;BMP280;60646;55.802;37.032;2022-10-16T06:43:40;101076.16;;;9.56
67515;BMP280;60646;55.802;37.032;2022-10-16T06:46:06;101074.41;;;9.62
67515;BMP280;60646;55.802;37.032;2022-10-16T06:48:35;101077.22;;;9.67
67515;BMP280;60646;55.802;37.032;2022-10-16T06:51:02;101067.91;;;9.72
67515;BMP280;60646;55.802;37.032;2022-10-16T06:53:29;101078.03;;;9.77
67515;BMP280;60646;55.802;37.032;2022-10-16T06:55:55;101078.19;;;9.82
67515;BMP280;60646;55.802;37.032;2022-10-16T06:58:20;101074.97;;;9.87
67515;BMP280;60646;55.802;37.032;2022-10-16T07:00:46;101080.47;;;9.93
67515;BMP280;60646;55.802;37.032;2022-10-16T07:03:12;101080.59;;;9.98
67515;BMP280;60646;55.802;37.032;2022-10-16T07:05:38;101085.69;;;10.06
67515;BMP280;60646;55.802;37.032;2022-10-16T07:08:04;101073.28;;;10.12
67515;BMP280;60646;55.802;37.032;2022-10-16T07:10:31;101084.41;;;10.19
67515;BMP280;60646;55.802;37.032;2022-10-16T07:12:56;101081.88;;;10.25
67515;BMP280;60646;55.802;37.032;2022-10-16T07:15:23;101081.59;;;10.32
67515;BMP280;60646;55.802;37.032;2022-10-16T07:17:49;101087.38;;;10.39
67515;BMP280;60646;55.802;37.032;2022-10-16T07:20:15;101088.59;;;10.47
67515;BMP280;60646;55.802;37.032;2022-10-16T07:22:41;101088.31;;;10.54
67515;BMP280;60646;55.802;37.032;2022-10-16T07:25:07;101092.19;;;10.63
67515;BMP280;60646;55.802;37.032;2022-10-16T07:27:32;101093.09;;;10.69
67515;BMP280;60646;55.802;37.032;2022-10-16T07:29:58;101089.81;;;10.74
67515;BMP280;60646;55.802;37.032;2022-10-16T07:32:24;101103.63;;;10.81
67515;BMP280;60646;55.802;37.032;2022-10-16T07:34:52;101096.94;;;10.86
67515;BMP280;60646;55.802;37.032;2022-10-16T07:37:21;101101.25;;;10.92
67515;BMP280;60646;55.802;37.032;2022-10-16T07:43:21;101094.56;;;11.06
67515;BMP280;60646;55.802;37.032;2022-10-16T07:48:42;101090.97;;;11.18
67515;BMP280;60646;55.802;37.032;2022-10-16T07:51:11;101091.41;;;11.26
67515;BMP280;60646;55.802;37.032;2022-10-16T07:53:40;101088.09;;;11.31
67515;BMP280;60646;55.802;37.032;2022-10-16T07:56:06;101084.66;;;11.39
67515;BMP280;60646;55.802;37.032;2022-10-16T07:58:32;101095.06;;;11.46
67515;BMP280;60646;55.802;37.032;2022-10-16T08:00:58;101086.41;;;11.51
67515;BMP280;60646;55.802;37.032;2022-10-16T08:03:24;101091.44;;;11.58
67515;BMP280;60646;55.802;37.032;2022-10-16T08:05:50;101083.81;;;11.66
67515;BMP280;60646;55.802;37.032;2022-10-16T08:08:16;101090.78;;;11.73
67515;BMP280;60646;55.802;37.032;2022-10-16T08:10:42;101088.97;;;11.79
67515;BMP280;60646;55.802;37.032;2022-10-16T08:13:09;101088.63;;;11.86
67515;BMP280;60646;55.802;37.032;2022-10-16T08:15:34;101082.97;;;11.93
67515;BMP280;60646;55.802;37.032;2022-10-16T08:18:04;101083.38;;;12.00
67515;BMP280;60646;55.802;37.032;2022-10-16T08:20:30;101080.34;;;12.07
67515;BMP280;60646;55.802;37.032;2022-10-16T08:22:56;101076.59;;;12.14
67515;BMP280;60646;55.802;37.032;2022-10-16T08:25:25;101081.59;;;12.21
67515;BMP280;60646;55.802;37.032;2022-10-16T08:27:51;101073.22;;;12.28
67515;BMP280;60646;55.802;37.032;2022-10-16T08:30:17;101082.38;;;12.36
67515;BMP280;60646;55.802;37.032;2022-10-16T08:32:47;101081.31;;;12.43
67515;BMP280;60646;55.802;37.032;2022-10-16T08:35:12;101070.97;;;12.50
67515;BMP280;60646;55.802;37.032;2022-10-16T08:37:38;101061.38;;;12.58
67515;BMP280;60646;55.802;37.032;2022-10-16T08:40:05;101069.06;;;12.65
67515;BMP280;60646;55.802;37.032;2022-10-16T08:42:52;101074.38;;;12.74
67515;BMP280;60646;55.802;37.032;2022-10-16T08:50:37;101069.38;;;12.97
67515;BMP280;60646;55.802;37.032;2022-10-16T08:53:04;101065.09;;;13.05
67515;BMP280;60646;55.802;37.032;2022-10-16T08:55:49;101070.09;;;13.12
67515;BMP280;60646;55.802;37.032;2022-10-16T08:58:17;101071.94;;;13.20
67515;BMP280;60646;55.802;37.032;2022-10-16T09:00:44;101065.47;;;13.27
67515;BMP280;60646;55.802;37.032;2022-10-16T09:08:28;101067.28;;;13.50
67515;BMP280;60646;55.802;37.032;2022-10-16T09:13:23;101067.97;;;13.65
67515;BMP280;60646;55.802;37.032;2022-10-16T09:15:54;101072.47;;;13.74
67515;BMP280;60646;55.802;37.032;2022-10-16T09:18:29;101069.38;;;13.81
67515;BMP280;60646;55.802;37.032;2022-10-16T09:20:59;101065.09;;;13.89
67515;BMP280;60646;55.802;37.032;2022-10-16T09:23:27;101063.97;;;13.95
67515;BMP280;60646;55.802;37.032;2022-10-16T09:25:54;101059.66;;;14.03
67515;BMP280;60646;55.802;37.032;2022-10-16T09:28:20;101054.59;;;14.11
67515;BMP280;60646;55.802;37.032;2022-10-16T09:30:46;101054.22;;;14.18
67515;BMP280;60646;55.802;37.032;2022-10-16T09:33:15;101056.03;;;14.27
67515;BMP280;60646;55.802;37.032;2022-10-16T09:41:42;101048.44;;;14.51
67515;BMP280;60646;55.802;37.032;2022-10-16T09:50:04;101048.66;;;14.73
67515;BMP280;60646;55.802;37.032;2022-10-16T09:56:32;101048.03;;;14.89
67515;BMP280;60646;55.802;37.032;2022-10-16T09:59:08;101046.13;;;14.95
67515;BMP280;60646;55.802;37.032;2022-10-16T10:01:38;101038.81;;;15.01
67515;BMP280;60646;55.802;37.032;2022-10-16T10:04:05;101040.34;;;15.08
67515;BMP280;60646;55.802;37.032;2022-10-16T10:06:35;101043.84;;;15.14
67515;BMP280;60646;55.802;37.032;2022-10-16T10:09:19;101045.84;;;15.19
67515;BMP280;60646;55.802;37.032;2022-10-16T10:11:54;101036.31;;;15.23
67515;BMP280;60646;55.802;37.032;2022-10-16T10:17:29;101030.72;;;15.32
67515;BMP280;60646;55.802;37.032;2022-10-16T10:19:50;101031.47;;;15.38
67515;BMP280;60646;55.802;37.032;2022-10-16T10:24:57;101025.16;;;15.47
67515;BMP280;60646;55.802;37.032;2022-10-16T10:27:37;101023.72;;;15.52
67515;BMP280;60646;55.802;37.032;2022-10-16T10:30:08;101018.81;;;15.56
67515;BMP280;60646;55.802;37.032;2022-10-16T10:35:27;101015.91;;;15.65
67515;BMP280;60646;55.802;37.032;2022-10-16T10:38:02;101022.56;;;15.69
67515;BMP280;60646;55.802;37.032;2022-10-16T10:41:06;101011.56;;;15.73
67515;BMP280;60646;55.802;37.032;2022-10-16T10:43:37;101015.00;;;15.79
67515;BMP280;60646;55.802;37.032;2022-10-16T10:46:06;101016.25;;;15.83
67515;BMP280;60646;55.802;37.032;2022-10-16T10:51:12;101018.50;;;15.90
67515;BMP280;60646;55.802;37.032;2022-10-16T11:01:50;101014.56;;;16.02
67515;BMP280;60646;55.802;37.032;2022-10-16T11:04:23;101011.66;;;16.06
67515;BMP280;60646;55.802;37.032;2022-10-16T11:06:55;101012.13;;;16.10
67515;BMP280;60646;55.802;37.032;2022-10-16T11:11:59;101004.06;;;16.16
67515;BMP280;60646;55.802;37.032;2022-10-16T11:17:35;101008.25;;;16.22
67515;BMP280;60646;55.802;37.032;2022-10-16T11:23:02;101011.66;;;16.28
67515;BMP280;60646;55.802;37.032;2022-10-16T11:25:31;101009.97;;;16.31
67515;BMP280;60646;55.802;37.032;2022-10-16T11:30:27;101008.75;;;16.37
67515;BMP280;60646;55.802;37.032;2022-10-16T11:35:44;101002.63;;;16.42
67515;BMP280;60646;55.802;37.032;2022-10-16T11:38:17;101013.66;;;16.44
67515;BMP280;60646;55.802;37.032;2022-10-16T11:40:47;101002.88;;;16.44
67515;BMP280;60646;55.802;37.032;2022-10-16T11:43:24;101009.50;;;16.49
67515;BMP280;60646;55.802;37.032;2022-10-16T11:45:57;101013.16;;;16.51
67515;BMP280;60646;55.802;37.032;2022-10-16T11:54:28;101008.25;;;16.55
67515;BMP280;60646;55.802;37.032;2022-10-16T11:57:08;101002.38;;;16.57
67515;BMP280;60646;55.802;37.032;2022-10-16T11:59:48;101001.91;;;16.58
67515;BMP280;60646;55.802;37.032;2022-10-16T12:11:24;100985.91;;;16.60
67515;BMP280;60646;55.802;37.032;2022-10-16T12:14:21;100995.50;;;16.61
67515;BMP280;60646;55.802;37.032;2022-10-16T12:19:19;100999.91;;;16.64
67515;BMP280;60646;55.802;37.032;2022-10-16T12:21:47;101001.38;;;16.65
67515;BMP280;60646;55.802;37.032;2022-10-16T12:24:58;100981.28;;;16.66
67515;BMP280;60646;55.802;37.032;2022-10-16T12:27:18;100987.41;;;16.67
67515;BMP280;60646;55.802;37.032;2022-10-16T12:29:57;100984.22;;;16.68
67515;BMP280;60646;55.802;37.032;2022-10-16T12:32:36;100980.06;;;16.67
67515;BMP280;60646;55.802;37.032;2022-10-16T12:35:03;100980.06;;;16.67
67515;BMP280;60646;55.802;37.032;2022-10-16T12:37:34;100977.34;;;16.67
67515;BMP280;60646;55.802;37.032;2022-10-16T12:42:45;100985.94;;;16.66
67515;BMP280;60646;55.802;37.032;2022-10-16T12:45:29;100983.97;;;16.66
67515;BMP280;60646;55.802;37.032;2022-10-16T12:48:00;100985.94;;;16.66
67515;BMP280;60646;55.802;37.032;2022-10-16T12:50:35;100992.06;;;16.66
67515;BMP280;60646;55.802;37.032;2022-10-16T12:53:16;100983.69;;;16.64
67515;BMP280;60646;55.802;37.032;2022-10-16T13:00:57;100978.56;;;16.61
67515;BMP280;60646;55.802;37.032;2022-10-16T13:07:06;100981.75;;;16.59
67515;BMP280;60646;55.802;37.032;2022-10-16T13:10:02;100980.31;;;16.58
67515;BMP280;60646;55.802;37.032;2022-10-16T13:28:38;100983.75;;;16.53
67515;BMP280;60646;55.802;37.032;2022-10-16T13:31:21;100975.38;;;16.51
67515;BMP280;60646;55.802;37.032;2022-10-16T13:34:02;100977.84;;;16.49
67515;BMP280;60646;55.802;37.032;2022-10-16T13:36:34;100976.38;;;16.48
67515;BMP280;60646;55.802;37.032;2022-10-16T13:44:49;100979.81;;;16.43
67515;BMP280;60646;55.802;37.032;2022-10-16T13:47:21;100975.63;;;16.42
67515;BMP280;60646;55.802;37.032;2022-10-16T13:49:47;100962.38;;;16.39
67515;BMP280;60646;55.802;37.032;2022-10-16T13:52:29;100966.84;;;16.36
67515;BMP280;60646;55.802;37.032;2022-10-16T13:55:01;100970.75;;;16.35
67515;BMP280;60646;55.802;37.032;2022-10-16T13:57:32;100967.56;;;16.31
67515;BMP280;60646;55.802;37.032;2022-10-16T14:00:17;100962.41;;;16.28
67515;BMP280;60646;55.802;37.032;2022-10-16T14:02:49;100969.50;;;16.25
67515;BMP280;60646;55.802;37.032;2022-10-16T14:05:20;100975.91;;;16.22
67515;BMP280;60646;55.802;37.032;2022-10-16T14:11:01;100983.47;;;16.13
67515;BMP280;60646;55.802;37.032;2022-10-16T14:13:39;100966.06;;;16.08
67515;BMP280;60646;55.802;37.032;2022-10-16T14:16:22;100979.53;;;16.02
67515;BMP280;60646;55.802;37.032;2022-10-16T14:19:02;100977.09;;;15.99
67515;BMP280;60646;55.802;37.032;2022-10-16T14:21:35;100968.22;;;15.93
67515;BMP280;60646;55.802;37.032;2022-10-16T14:24:33;100964.78;;;15.87
67515;BMP280;60646;55.802;37.032;2022-10-16T14:30:14;100965.25;;;15.74
67515;BMP280;60646;55.802;37.032;2022-10-16T14:35:34;100966.91;;;15.61
67515;BMP280;60646;55.802;37.032;2022-10-16T14:38:01;100964.19;;;15.55
67515;BMP280;60646;55.802;37.032;2022-10-16T14:40:31;100968.38;;;15.51
67515;BMP280;60646;55.802;37.032;2022-10-16T14:42:57;100975.69;;;15.45
67515;BMP280;60646;55.802;37.032;2022-10-16T14:45:24;100971.00;;;15.39
67515;BMP280;60646;55.802;37.032;2022-10-16T14:47:55;100979.06;;;15.34
67515;BMP280;60646;55.802;37.032;2022-10-16T14:50:21;100984.41;;;15.28
67515;BMP280;60646;55.802;37.032;2022-10-16T14:52:47;100978.28;;;15.22
67515;BMP280;60646;55.802;37.032;2022-10-16T14:55:19;100973.59;;;15.17
67515;BMP280;60646;55.802;37.032;2022-10-16T14:57:51;100966.22;;;15.12
67515;BMP280;60646;55.802;37.032;2022-10-16T15:03:09;100978.41;;;15.02
67515;BMP280;60646;55.802;37.032;2022-10-16T15:05:40;100968.59;;;14.99
67515;BMP280;60646;55.802;37.032;2022-10-16T15:08:11;100984.25;;;14.95
67515;BMP280;60646;55.802;37.032;2022-10-16T15:10:59;100975.63;;;14.91
67515;BMP280;60646;55.802;37.032;2022-10-16T15:13:31;100979.03;;;14.86
67515;BMP280;60646;55.802;37.032;2022-10-16T15:15:59;100978.78;;;14.84
67515;BMP280;60646;55.802;37.032;2022-10-16T15:18:29;100976.78;;;14.79
67515;BMP280;60646;55.802;37.032;2022-10-16T15:23:48;100982.31;;;14.70
67515;BMP280;60646;55.802;37.032;2022-10-16T15:26:24;100980.34;;;14.65
67515;BMP280;60646;55.802;37.032;2022-10-16T15:28:50;100977.13;;;14.61
67515;BMP280;60646;55.802;37.032;2022-10-16T15:31:20;100975.38;;;14.58
67515;BMP280;60646;55.802;37.032;2022-10-16T15:33:50;100979.06;;;14.55
67515;BMP280;60646;55.802;37.032;2022-10-16T15:36:25;100974.59;;;14.52
67515;BMP280;60646;55.802;37.032;2022-10-16T15:38:52;100972.88;;;14.49
67515;BMP280;60646;55.802;37.032;2022-10-16T15:41:20;100968.19;;;14.44
67515;BMP280;60646;55.802;37.032;2022-10-16T15:43:47;100959.88;;;14.42
67515;BMP280;60646;55.802;37.032;2022-10-16T15:46:14;100956.16;;;14.39
67515;BMP280;60646;55.802;37.032;2022-10-16T15:48:50;100962.03;;;14.38
67515;BMP280;60646;55.802;37.032;2022-10-16T15:51:17;100959.81;;;14.36
67515;BMP280;60646;55.802;37.032;2022-10-16T15:53:46;100956.38;;;14.36
67515;BMP280;60646;55.802;37.032;2022-10-16T15:56:22;100953.41;;;14.34
67515;BMP280;60646;55.802;37.032;2022-10-16T15:58:54;100959.75;;;14.31
67515;BMP280;60646;55.802;37.032;2022-10-16T16:01:23;100968.78;;;14.28
67515;BMP280;60646;55.802;37.032;2022-10-16T16:03:52;100970.94;;;14.24
67515;BMP280;60646;55.802;37.032;2022-10-16T16:06:23;100972.84;;;14.18
67515;BMP280;60646;55.802;37.032;2022-10-16T16:08:49;100971.56;;;14.13
67515;BMP280;60646;55.802;37.032;2022-10-16T16:11:16;100964.94;;;14.08
67515;BMP280;60646;55.802;37.032;2022-10-16T16:13:46;100979.03;;;14.03
67515;BMP280;60646;55.802;37.032;2022-10-16T16:16:26;100973.59;;;13.98
67515;BMP280;60646;55.802;37.032;2022-10-16T16:18:55;100985.75;;;13.93
67515;BMP280;60646;55.802;37.032;2022-10-16T16:21:24;100984.97;;;13.87
67515;BMP280;60646;55.802;37.032;2022-10-16T16:26:44;100986.78;;;13.76
67515;BMP280;60646;55.802;37.032;2022-10-16T16:29:14;100978.94;;;13.72
67515;BMP280;60646;55.802;37.032;2022-10-16T16:31:40;100970.34;;;13.68
67515;BMP280;60646;55.802;37.032;2022-10-16T16:34:15;100971.53;;;13.67